Please disable your adblock and script blockers to view this page.

ICAO: VHHH Country: China
Latitude: 22.308889 Longitude: 113.914722
Total Arrivals: 15 Total Departures: 13
Latest Arrival:  SDA747-4 (RCTP-VHHH) GeoffreyDe Kergariou Latest Departure:  SDA747-2 (VHHH-RCTP) GeoffreyDe Kergariou
Available Weather Information

METAR FOR VHHH (Issued: Tue, October 17th 2017 1:00 PM UTC):
VHHH 171300Z 04010KT 9999 FEW020 SCT035 26/22 Q1014 NOSIG

Runways

Runway ID Mag Var Hdg Length Elevation Surface ILS Freq ILS Id ILS Slope
07L -2 72° 12431 ft 28 ft Asphalt 111.1 IZSL 3
07R -2 72° 12431 ft 28 ft Asphalt 109.3 ISR 3
25L -2 252° 12431 ft 28 ft Asphalt 108.9 IFL 3
25R -2 252° 12431 ft 28 ft Asphalt 110.9 ITFR 3

Hong Kong International Airport




SkyDream Airlines

Start your flying career at SkyDream Airlines today and join a nice and friendly community!

Have fun flying in France and all over the World!

Copyright © 2017 - SkyDream Airlines

AIRAC cycle : 1711 Version : 1 Valid (from/to): 12/OCT/2017 - 08/NOV/2017

Your IP is 162.158.62.43

This page was generated in 0.0004 seconds

Website design by FSX30HD CMS by phpVMS